Time;durP1;ratioP1;P1;durP2;ratioP2;P2;SDS_P1;SDS_P2;PMS_P1;PMS_P2;Temp;Humidity;BMP_temperature;BMP_pressure;BME280_temperature;BME280_humidity;BME280_pressure;Samples;Min_cycle;Max_cycle;Signal;HPM_P1;HPM_P2
2022/06/17 00:01:13;;;;;;;7.55;2.92;;;;;;;13.47;80.29;99758.38;8515061;27;20051;-74
2022/06/17 00:05:14;;;;;;;7.63;2.67;;;;;;;13.52;80.18;99760.97;8510243;27;20047;-74
2022/06/17 00:09:17;;;;;;;7.28;2.25;;;;;;;13.55;80.20;99765.75;8500250;27;20503;-74
2022/06/17 00:13:19;;;;;;;9.43;2.97;;;;;;;13.57;79.85;99774.38;8513061;27;20046;-74
2022/06/17 00:17:21;;;;;;;7.88;2.92;;;;;;;13.54;79.75;99777.72;8521918;27;20046;-74
2022/06/17 00:21:27;;;;;;;5.88;2.72;;;;;;;13.47;80.04;99770.03;8525005;27;20472;-73
2022/06/17 00:25:33;;;;;;;6.38;2.60;;;;;;;13.41;80.22;99782.13;8504564;27;20047;-74
2022/06/17 00:29:34;;;;;;;6.47;2.85;;;;;;;13.36;80.30;99778.75;8507922;27;20062;-74
2022/06/17 00:33:35;;;;;;;7.72;2.60;;;;;;;13.32;80.45;99777.78;8484613;27;20436;-74
2022/06/17 00:37:36;;;;;;;8.10;2.78;;;;;;;13.32;80.42;99778.56;8518628;27;20055;-74
2022/06/17 00:41:37;;;;;;;6.35;2.78;;;;;;;13.25;80.61;99774.69;8513770;27;20039;-74
2022/06/17 00:45:44;;;;;;;7.85;3.08;;;;;;;13.11;81.15;99783.69;8521984;27;20042;-74
2022/06/17 00:49:56;;;;;;;7.43;2.58;;;;;;;13.01;81.47;99778.47;8493958;27;20057;-75
2022/06/17 00:54:21;;;;;;;4.85;2.63;;;;;;;12.92;81.83;99774.91;8489511;27;20528;-74
2022/06/17 00:58:26;;;;;;;9.15;2.60;;;;;;;12.85;82.21;99774.53;8351552;28;20044;-74
2022/06/17 01:02:30;;;;;;;5.10;2.70;;;;;;;12.76;82.50;99770.94;8358068;28;20044;-74
2022/06/17 01:06:34;;;;;;;5.38;2.72;;;;;;;12.69;82.79;99776.78;8357428;28;20079;-75
2022/06/17 01:10:35;;;;;;;7.10;2.45;;;;;;;12.65;82.74;99780.41;8357038;28;20083;-74
2022/06/17 01:14:38;;;;;;;5.50;2.53;;;;;;;12.60;82.97;99772.41;8357092;28;20079;-74
2022/06/17 01:18:42;;;;;;;8.27;3.53;;;;;;;12.53;83.05;99788.31;8345139;28;20101;-74
2022/06/17 01:22:47;;;;;;;5.93;2.75;;;;;;;12.47;83.12;99779.47;8357717;28;20080;-74
2022/06/17 01:26:48;;;;;;;5.72;2.72;;;;;;;12.41;83.18;99779.88;8356535;28;20144;-74
2022/06/17 01:30:51;;;;;;;9.07;2.75;;;;;;;12.33;83.47;99788.72;8357515;28;20041;-74
2022/06/17 01:34:52;;;;;;;5.75;2.50;;;;;;;12.25;83.66;99788.34;8446450;27;20038;-73
2022/06/17 01:38:57;;;;;;;7.45;2.60;;;;;;;12.20;83.86;99785.75;8505144;27;20100;-74
2022/06/17 01:43:00;;;;;;;17.23;3.05;;;;;;;12.12;83.90;99794.56;8513958;27;20461;-73
2022/06/17 01:47:05;;;;;;;6.20;2.83;;;;;;;11.93;84.06;99796.59;8497979;27;20043;-74
2022/06/17 01:51:07;;;;;;;5.22;2.58;;;;;;;11.86;84.09;99790.75;8480515;27;20051;-74
2022/06/17 01:55:17;;;;;;;7.25;3.03;;;;;;;11.77;84.10;99787.16;8473469;27;20043;-74
2022/06/17 01:59:25;;;;;;;12.70;2.97;;;;;;;11.74;84.01;99795.84;8454612;27;20149;-74
2022/06/17 02:03:32;;;;;;;7.72;2.88;;;;;;;11.65;83.83;99789.50;8465581;27;20063;-74
2022/06/17 02:07:39;;;;;;;6.20;2.58;;;;;;;11.57;83.74;99792.91;8437357;27;20471;-74
2022/06/17 02:11:40;;;;;;;11.30;3.13;;;;;;;11.51;84.07;99788.69;8468972;27;21679;-73
2022/06/17 02:15:42;;;;;;;10.02;2.50;;;;;;;11.46;83.77;99786.88;8477630;27;20047;-73
2022/06/17 02:19:44;;;;;;;4.45;2.58;;;;;;;11.37;83.78;99794.06;8474289;27;20081;-73
2022/06/17 02:23:45;;;;;;;6.80;2.70;;;;;;;11.22;83.87;99792.41;8447986;27;20050;-74
2022/06/17 02:27:47;;;;;;;4.85;2.67;;;;;;;11.14;83.87;99790.41;8488285;27;20087;-74
2022/06/17 02:31:49;;;;;;;10.43;2.58;;;;;;;11.08;83.97;99791.59;8489322;27;20074;-74
2022/06/17 02:35:53;;;;;;;9.40;3.00;;;;;;;11.06;83.74;99793.75;8496517;27;20034;-74
2022/06/17 02:39:56;;;;;;;5.95;2.75;;;;;;;11.02;83.53;99792.75;8495365;27;20197;-73
2022/06/17 02:44:05;;;;;;;8.85;2.40;;;;;;;10.86;83.71;99804.91;8504906;27;20043;-74
2022/06/17 02:48:21;;;;;;;7.28;2.50;;;;;;;10.78;83.70;99808.28;8499370;27;20387;-74
2022/06/17 02:52:31;;;;;;;6.82;2.33;;;;;;;10.71;83.94;99813.22;8503819;27;20090;-74
2022/06/17 02:56:35;;;;;;;3.67;2.55;;;;;;;10.73;83.95;99808.34;8478616;27;20073;-73
2022/06/17 03:00:36;;;;;;;21.85;2.63;;;;;;;10.67;83.44;99817.63;8490656;27;20511;-74
2022/06/17 03:04:37;;;;;;;6.75;3.67;;;;;;;10.61;83.44;99818.78;8481970;27;20074;-74
2022/06/17 03:08:38;;;;;;;8.90;2.42;;;;;;;10.62;83.28;99825.78;8504097;27;20055;-73
2022/06/17 03:12:39;;;;;;;3.35;2.50;;;;;;;10.51;83.36;99835.94;8495193;27;20101;-74
2022/06/17 03:16:42;;;;;;;7.30;2.60;;;;;;;10.46;83.43;99855.72;8491268;27;20042;-74
2022/06/17 03:20:45;;;;;;;21.48;5.47;;;;;;;10.37;83.77;99857.41;8519501;27;20419;-73
2022/06/17 03:25:11;;;;;;;5.78;2.53;;;;;;;10.40;83.46;99862.25;8524244;27;20415;-73
2022/06/17 03:29:13;;;;;;;8.48;2.95;;;;;;;10.32;83.99;99876.38;8518472;27;20055;-74
2022/06/17 03:33:20;;;;;;;9.65;3.65;;;;;;;10.47;84.12;99870.78;8521655;27;20039;-74
2022/06/17 03:37:44;;;;;;;12.63;3.55;;;;;;;10.55;84.38;99875.56;8503343;27;20054;-73
2022/06/17 03:41:55;;;;;;;10.85;3.58;;;;;;;10.64;84.00;99888.41;8500523;27;20058;-73
2022/06/17 03:46:00;;;;;;;7.57;3.88;;;;;;;10.74;84.20;99888.28;8507191;27;20117;-73
2022/06/17 03:50:07;;;;;;;7.30;3.13;;;;;;;10.86;84.15;99891.38;8525954;27;20054;-74
2022/06/17 03:54:15;;;;;;;8.13;3.72;;;;;;;11.03;84.50;99905.19;8526900;27;20122;-73
2022/06/17 03:58:18;;;;;;;6.93;3.58;;;;;;;11.15;84.98;99900.16;8502675;27;20467;-74
2022/06/17 04:02:19;;;;;;;12.02;3.78;;;;;;;11.28;84.65;99909.41;8521724;27;20046;-73
2022/06/17 04:06:24;;;;;;;7.95;3.67;;;;;;;11.43;84.57;99907.28;8528527;27;20057;-73
2022/06/17 04:10:26;;;;;;;7.78;4.03;;;;;;;11.58;84.81;99908.13;8526673;27;20038;-74
2022/06/17 04:14:30;;;;;;;7.65;3.80;;;;;;;11.67;84.77;99911.78;8512264;27;20049;-74
2022/06/17 04:18:35;;;;;;;5.40;3.35;;;;;;;11.81;84.72;99913.44;8524512;27;20721;-73
2022/06/17 04:22:36;;;;;;;6.80;2.90;;;;;;;11.94;84.33;99914.59;8523045;27;20046;-74
2022/06/17 04:26:38;;;;;;;4.13;3.22;;;;;;;12.06;84.31;99920.31;8483497;27;20042;-74
2022/06/17 04:30:45;;;;;;;6.88;3.60;;;;;;;12.17;84.29;99927.13;8498618;27;20036;-74
2022/06/17 04:34:46;;;;;;;8.50;3.30;;;;;;;12.31;83.80;99926.38;8474386;27;20047;-73
2022/06/17 04:38:53;;;;;;;8.77;3.47;;;;;;;12.41;83.36;99931.59;8511426;27;20094;-76
2022/06/17 04:42:54;;;;;;;6.93;3.10;;;;;;;12.52;82.79;99922.16;8481707;27;21288;-74
2022/06/17 04:47:06;;;;;;;11.50;3.15;;;;;;;12.65;82.41;99926.75;8478425;27;20044;-75
2022/06/17 04:51:08;;;;;;;12.18;3.33;;;;;;;12.79;81.42;99922.13;8486900;27;20048;-74
2022/06/17 04:55:32;;;;;;;5.15;2.90;;;;;;;12.91;80.50;99925.13;8514635;27;20035;-74
2022/06/17 04:59:40;;;;;;;5.60;2.70;;;;;;;13.01;80.59;99919.47;8500358;27;20047;-74
2022/06/17 05:03:41;;;;;;;7.10;2.80;;;;;;;13.17;78.63;99932.72;8508228;27;20054;-74
2022/06/17 05:07:46;;;;;;;6.80;2.83;;;;;;;13.26;78.52;99920.06;8514131;27;20103;-74
2022/06/17 05:11:49;;;;;;;7.65;2.67;;;;;;;13.42;79.03;99921.31;8524654;27;20035;-74
2022/06/17 05:15:53;;;;;;;5.68;1.95;;;;;;;13.51;78.54;99922.16;8514081;27;20047;-75
2022/06/17 05:19:54;;;;;;;5.32;2.10;;;;;;;13.55;77.96;99909.56;8506843;27;20080;-75
2022/06/17 05:23:57;;;;;;;9.35;2.28;;;;;;;13.69;77.34;99907.63;8505983;27;20400;-75
2022/06/17 05:27:58;;;;;;;7.15;2.53;;;;;;;13.80;77.43;99919.78;8514377;27;20047;-75
2022/06/17 05:31:59;;;;;;;9.48;2.60;;;;;;;13.88;77.08;99904.69;8506482;27;20107;-74
2022/06/17 05:35:59;;;;;;;3.45;1.98;;;;;;;14.04;76.58;99918.66;8501641;27;20050;-74
2022/06/17 05:40:00;;;;;;;3.85;1.90;;;;;;;14.09;76.09;99921.25;8518274;27;20035;-74
2022/06/17 05:44:02;;;;;;;6.30;1.75;;;;;;;14.10;76.02;99918.22;8514601;27;20043;-75
2022/06/17 05:48:03;;;;;;;6.28;1.83;;;;;;;14.17;75.88;99918.56;8461191;27;20035;-75
2022/06/17 05:52:05;;;;;;;8.05;2.22;;;;;;;14.29;75.75;99915.25;8506286;27;20412;-74
2022/06/17 05:56:06;;;;;;;8.48;2.08;;;;;;;14.48;75.63;99924.03;8502302;27;20079;-74
2022/06/17 06:00:08;;;;;;;7.20;2.08;;;;;;;14.69;75.28;99930.47;8488456;27;20040;-75
2022/06/17 06:04:09;;;;;;;4.40;1.88;;;;;;;14.90;74.37;99919.00;8487399;27;20053;-74
2022/06/17 06:08:10;;;;;;;4.00;1.65;;;;;;;14.97;73.53;99919.31;8500447;27;20071;-74
2022/06/17 06:12:11;;;;;;;4.72;2.22;;;;;;;15.09;73.50;99922.22;8475226;27;20047;-74
2022/06/17 06:16:13;;;;;;;5.35;1.75;;;;;;;15.21;72.37;99908.81;8502120;27;20066;-74
2022/06/17 06:20:15;;;;;;;5.93;1.90;;;;;;;15.34;72.73;99918.72;8506800;27;20051;-74
2022/06/17 06:24:16;;;;;;;7.53;2.08;;;;;;;15.48;71.91;99924.81;8497697;27;20071;-74
2022/06/17 06:28:19;;;;;;;3.28;1.77;;;;;;;15.60;71.52;99927.69;8476893;27;20132;-74
2022/06/17 06:32:20;;;;;;;2.97;1.50;;;;;;;15.70;71.70;99931.22;8504982;27;20039;-75
2022/06/17 06:36:23;;;;;;;7.55;1.70;;;;;;;15.81;70.73;99927.06;8500738;27;20480;-74
2022/06/17 06:40:24;;;;;;;4.53;2.00;;;;;;;15.92;70.58;99941.91;8490665;27;20047;-74
2022/06/17 06:44:25;;;;;;;4.45;1.73;;;;;;;15.96;69.67;99929.25;8513575;27;20050;-75
2022/06/17 06:48:26;;;;;;;6.90;2.15;;;;;;;16.13;69.23;99934.66;8506465;27;20062;-75
2022/06/17 06:52:27;;;;;;;6.60;2.03;;;;;;;16.37;69.48;99951.25;8496329;27;20066;-74
2022/06/17 06:56:28;;;;;;;4.15;2.42;;;;;;;16.58;69.58;99945.88;8468907;27;20090;-75
2022/06/17 07:00:41;;;;;;;11.18;1.92;;;;;;;16.75;67.52;99955.94;8518178;27;20070;-74
2022/06/17 07:04:42;;;;;;;6.82;1.85;;;;;;;16.81;67.62;99954.63;8496994;27;20055;-74
2022/06/17 07:08:43;;;;;;;7.47;2.63;;;;;;;17.04;67.53;99958.63;8498542;27;20071;-74
2022/06/17 07:12:44;;;;;;;2.92;1.67;;;;;;;17.16;67.12;99961.47;8482145;27;20044;-75
2022/06/17 07:16:45;;;;;;;7.82;1.92;;;;;;;17.17;66.34;99963.06;8517413;27;20050;-74
2022/06/17 07:20:50;;;;;;;4.07;2.10;;;;;;;17.30;66.24;99967.44;8514036;27;20039;-75
2022/06/17 07:24:51;;;;;;;9.57;1.98;;;;;;;17.56;65.00;99980.09;8513287;27;20047;-75
2022/06/17 07:28:53;;;;;;;3.60;1.90;;;;;;;17.60;64.64;99975.63;8502064;27;20056;-74
2022/06/17 07:32:54;;;;;;;11.48;2.05;;;;;;;17.60;65.22;99975.63;8521377;27;20070;-74
2022/06/17 07:41:18;;;;;;;3.72;2.10;;;;;;;17.63;63.96;99991.34;8508161;27;20100;-74
2022/06/17 07:45:19;;;;;;;4.43;1.95;;;;;;;17.70;64.06;99991.59;8512998;27;20050;-75
2022/06/17 07:49:23;;;;;;;4.28;1.80;;;;;;;17.86;64.00;99998.06;8501189;27;20047;-75
2022/06/17 07:53:27;;;;;;;7.88;2.25;;;;;;;17.91;63.37;99981.44;8516877;27;20043;-75
2022/06/17 07:57:28;;;;;;;5.03;1.90;;;;;;;18.02;63.24;99988.09;8524910;27;20096;-73
2022/06/17 08:01:29;;;;;;;6.18;1.92;;;;;;;18.02;62.63;99993.56;8514305;27;20104;-72
2022/06/17 08:05:30;;;;;;;7.70;2.25;;;;;;;17.82;62.66;99983.44;8493164;27;20092;-75
2022/06/17 08:09:31;;;;;;;5.47;1.90;;;;;;;17.91;63.23;99988.84;8511465;27;20454;-73
2022/06/17 08:13:35;;;;;;;4.30;2.13;;;;;;;18.17;61.87;99974.91;8515877;27;20039;-73
2022/06/17 08:17:36;;;;;;;8.77;2.40;;;;;;;18.43;61.79;99975.44;8517188;27;20041;-73
2022/06/17 08:21:36;;;;;;;4.85;1.60;;;;;;;18.84;61.94;99986.19;8523062;27;20054;-73
2022/06/17 08:25:43;;;;;;;5.55;2.13;;;;;;;18.96;60.79;99988.16;8526914;27;20039;-73
2022/06/17 08:29:44;;;;;;;5.88;2.13;;;;;;;19.10;59.05;99993.25;8450558;28;20461;-73
2022/06/17 08:33:46;;;;;;;4.15;1.90;;;;;;;19.11;58.69;100005.81;8455867;28;20058;-72
2022/06/17 08:37:48;;;;;;;6.90;2.00;;;;;;;19.25;59.50;100000.75;8450729;28;20040;-73
2022/06/17 08:42:04;;;;;;;6.88;2.28;;;;;;;19.58;57.76;100009.63;8449816;28;20131;-72
2022/06/17 08:46:19;;;;;;;3.63;2.00;;;;;;;19.77;57.45;100007.06;8439922;28;20051;-73
2022/06/17 08:51:12;;;;;;;4.38;2.10;;;;;;;19.72;56.53;99993.59;8435375;28;20395;-72
2022/06/17 08:55:34;;;;;;;4.10;1.58;;;;;;;19.76;55.83;100010.97;8354913;28;20049;-73
2022/06/17 09:00:11;;;;;;;8.30;2.70;;;;;;;19.96;56.54;99997.41;8358150;28;20256;-73
2022/06/17 09:04:14;;;;;;;6.05;2.33;;;;;;;19.87;53.94;100005.00;8357220;28;20419;-73
2022/06/17 09:08:45;;;;;;;9.48;2.33;;;;;;;19.73;54.56;100006.16;8358627;28;20080;-74
2022/06/17 09:12:52;;;;;;;6.78;1.80;;;;;;;20.11;55.10;100002.13;8358251;28;20605;-72
2022/06/17 09:17:15;;;;;;;5.68;2.00;;;;;;;19.91;53.57;99997.66;8358301;28;20076;-72
2022/06/17 09:21:21;;;;;;;8.20;2.03;;;;;;;20.02;53.83;100007.78;8355582;28;20048;-73
2022/06/17 09:25:28;;;;;;;12.60;2.10;;;;;;;20.52;53.94;100004.44;8364749;28;20048;-73
2022/06/17 09:29:35;;;;;;;10.85;2.08;;;;;;;20.89;51.35;100006.91;8432306;27;20405;-72
2022/06/17 09:33:44;;;;;;;6.65;1.65;;;;;;;20.50;53.08;100017.72;8480886;27;20394;-73
2022/06/17 09:37:59;;;;;;;8.57;2.30;;;;;;;20.42;53.31;100015.94;8506390;27;20047;-72
2022/06/17 09:42:06;;;;;;;8.77;1.70;;;;;;;20.80;52.95;100009.03;8507739;27;20078;-73
2022/06/17 09:46:22;;;;;;;8.27;1.80;;;;;;;20.84;51.91;100007.97;8508448;27;20047;-73
2022/06/17 09:50:32;;;;;;;9.70;2.08;;;;;;;20.51;53.26;100008.34;8503655;27;20039;-73
2022/06/17 09:55:02;;;;;;;3.22;1.60;;;;;;;20.51;52.81;100010.28;8485639;27;20373;-73
2022/06/17 09:59:25;;;;;;;4.25;1.60;;;;;;;21.10;51.97;100004.66;8495265;27;20121;-74
2022/06/17 10:03:32;;;;;;;5.55;1.65;;;;;;;20.96;49.97;100015.31;8516924;27;20499;-73
2022/06/17 10:07:42;;;;;;;4.77;1.73;;;;;;;21.19;50.36;100005.31;8511159;27;20039;-74
2022/06/17 10:11:51;;;;;;;9.25;2.53;;;;;;;21.55;48.58;100008.84;8513892;27;20061;-73
2022/06/17 10:20:41;;;;;;;10.13;1.70;;;;;;;21.36;48.22;100026.88;8512553;27;20141;-75
2022/06/17 10:25:03;;;;;;;5.22;1.50;;;;;;;21.80;47.78;100012.91;8519544;27;20054;-74
2022/06/17 10:29:22;;;;;;;6.57;2.00;;;;;;;22.06;47.81;100026.81;8506272;27;20053;-75
2022/06/17 10:33:23;;;;;;;5.18;1.70;;;;;;;21.73;47.87;100018.28;8509642;27;20571;-73
2022/06/17 10:37:29;;;;;;;4.60;1.75;;;;;;;21.90;47.02;100023.31;8489050;27;20062;-73
2022/06/17 10:41:31;;;;;;;4.13;1.70;;;;;;;22.04;46.19;100020.09;8489699;27;20469;-73
2022/06/17 10:45:34;;;;;;;2.95;1.50;;;;;;;21.63;47.46;100027.06;8449906;27;20051;-73
2022/06/17 10:49:39;;;;;;;9.75;1.80;;;;;;;21.62;47.75;100017.25;8506988;27;20485;-74
2022/06/17 10:53:44;;;;;;;2.60;1.63;;;;;;;21.95;48.28;100020.31;8492522;27;20479;-73
2022/06/17 10:58:05;;;;;;;7.70;2.15;;;;;;;21.93;47.41;100017.13;8498364;27;20058;-73
2022/06/17 11:02:22;;;;;;;3.53;2.03;;;;;;;22.37;47.13;100014.03;8498753;27;20480;-73
2022/06/17 11:06:23;;;;;;;8.00;1.50;;;;;;;22.33;46.04;100003.75;8513856;27;20045;-73
2022/06/17 11:10:34;;;;;;;3.58;1.45;;;;;;;22.33;44.50;100002.97;8507889;27;20050;-74
2022/06/17 11:14:51;;;;;;;6.05;2.33;;;;;;;22.53;45.82;99996.25;8512892;27;20091;-74
2022/06/17 11:19:03;;;;;;;3.78;1.70;;;;;;;22.60;45.05;100001.09;8503797;27;20185;-73
2022/06/17 11:23:16;;;;;;;5.57;1.83;;;;;;;22.72;44.12;99998.19;8494404;27;20416;-74
2022/06/17 11:27:39;;;;;;;9.38;2.92;;;;;;;22.67;44.76;99996.50;8427436;27;20043;-74
2022/06/17 11:31:45;;;;;;;8.05;1.70;;;;;;;22.31;45.59;100000.56;8479336;27;20031;-73
2022/06/17 11:35:47;;;;;;;2.72;1.50;;;;;;;21.77;45.19;99997.16;8504631;27;20062;-73
2022/06/17 11:40:08;;;;;;;12.07;3.67;;;;;;;22.38;43.65;99993.59;8501379;27;20041;-73
2022/06/17 11:44:12;;;;;;;6.18;2.05;;;;;;;22.87;43.46;99991.75;8507838;27;20050;-73
2022/06/17 11:48:19;;;;;;;7.20;1.88;;;;;;;22.56;43.28;100005.75;8468600;27;20488;-74
2022/06/17 11:52:26;;;;;;;4.40;1.83;;;;;;;22.76;44.32;99992.72;8514930;27;20465;-73
2022/06/17 11:56:31;;;;;;;6.68;1.65;;;;;;;23.43;42.74;99994.53;8500990;27;20047;-73
2022/06/17 12:00:53;;;;;;;4.97;1.30;;;;;;;23.98;41.36;99987.38;8499951;27;20043;-73
2022/06/17 12:05:05;;;;;;;3.42;1.42;;;;;;;24.31;41.28;99983.81;8512825;27;20051;-73
2022/06/17 12:09:25;;;;;;;4.05;1.45;;;;;;;24.30;39.81;99987.75;8516654;27;20054;-74
2022/06/17 12:13:54;;;;;;;5.15;2.10;;;;;;;24.41;40.71;99985.09;8463465;27;20047;-73
2022/06/17 12:17:57;;;;;;;4.78;1.30;;;;;;;24.10;38.87;99977.25;8369900;28;20424;-73
2022/06/17 12:22:11;;;;;;;3.08;1.77;;;;;;;24.35;39.66;99970.84;8354012;28;20132;-74
2022/06/17 12:26:27;;;;;;;3.80;1.40;;;;;;;24.79;38.15;99975.56;8358565;28;20596;-73
2022/06/17 12:30:56;;;;;;;5.43;2.47;;;;;;;24.31;39.59;99977.50;8379975;28;20558;-73
2022/06/17 12:35:09;;;;;;;4.50;1.50;;;;;;;24.40;37.90;99964.16;8368487;28;20514;-74
2022/06/17 12:39:24;;;;;;;4.88;1.45;;;;;;;24.50;38.48;99974.50;8368365;28;20287;-74
2022/06/17 12:43:33;;;;;;;3.92;1.75;;;;;;;24.46;38.17;99968.19;8380147;28;20064;-73
2022/06/17 12:47:40;;;;;;;5.28;1.45;;;;;;;24.87;38.03;99959.81;8375402;28;20084;-73
2022/06/17 12:56:21;;;;;;;7.57;1.40;;;;;;;25.57;37.05;99954.75;8513723;27;20039;-74
2022/06/17 13:00:41;;;;;;;;;;;;;;;25.16;36.15;99967.16;8519231;27;20138;-72
2022/06/17 13:05:00;;;;;;;1.83;1.20;;;;;;;25.14;36.83;99950.16;8511038;27;20365;-73
2022/06/17 13:09:32;;;;;;;7.97;1.38;;;;;;;25.26;36.60;99955.38;8516689;27;20499;-73
2022/06/17 13:13:53;;;;;;;2.35;1.60;;;;;;;24.86;37.14;99964.53;8437710;28;20066;-73
2022/06/17 13:18:10;;;;;;;5.80;1.77;;;;;;;24.28;37.17;99961.69;8439714;28;20043;-72
2022/06/17 13:22:22;;;;;;;5.63;1.80;;;;;;;24.62;37.70;99957.66;8423632;28;20055;-72
2022/06/17 13:26:44;;;;;;;5.55;1.70;;;;;;;24.71;36.49;99963.66;8392972;28;20052;-72
2022/06/17 13:30:48;;;;;;;9.25;1.90;;;;;;;24.20;37.29;99949.00;8403720;28;20055;-72
2022/06/17 13:35:03;;;;;;;2.83;1.15;;;;;;;24.70;37.38;99951.00;8400376;28;20059;-72
2022/06/17 13:39:12;;;;;;;5.47;1.55;;;;;;;26.38;33.81;99937.59;8406680;28;20701;-72
2022/06/17 13:43:20;;;;;;;5.00;1.50;;;;;;;28.22;32.30;99947.41;8400464;28;20064;-72
2022/06/17 13:47:34;;;;;;;5.03;1.30;;;;;;;29.52;30.18;99939.06;8411067;28;20541;-73
2022/06/17 13:52:00;;;;;;;11.38;1.63;;;;;;;30.56;29.73;99931.59;8440233;28;20488;-73
2022/06/17 13:56:37;;;;;;;3.38;1.35;;;;;;;31.34;27.53;99938.59;8422867;28;20047;-75
2022/06/17 14:00:44;;;;;;;5.57;1.30;;;;;;;29.67;28.13;99934.88;8482524;27;20039;-74
2022/06/17 14:05:08;;;;;;;2.25;1.20;;;;;;;28.66;29.67;99932.75;8510373;27;20408;-74
2022/06/17 14:09:43;;;;;;;2.63;1.42;;;;;;;27.94;32.31;99931.69;8482185;27;20071;-75
2022/06/17 14:13:47;;;;;;;4.40;1.30;;;;;;;29.28;30.99;99912.31;8323798;28;20048;-75
2022/06/17 14:17:52;;;;;;;2.90;1.30;;;;;;;31.44;27.68;99926.41;8357443;28;20139;-74
2022/06/17 14:21:55;;;;;;;3.55;1.10;;;;;;;33.08;24.07;99935.34;8386105;28;20594;-74
2022/06/17 14:25:59;;;;;;;2.95;1.10;;;;;;;33.31;24.03;99930.75;8369424;28;20044;-74
2022/06/17 14:30:15;;;;;;;1.85;1.30;;;;;;;34.23;23.18;99928.00;8328004;28;20049;-75
2022/06/17 14:34:19;;;;;;;3.92;1.30;;;;;;;35.49;21.68;99932.44;8342426;28;20053;-74
2022/06/17 14:38:23;;;;;;;3.55;1.30;;;;;;;35.89;22.72;99935.38;8338666;28;20119;-75
2022/06/17 14:42:28;;;;;;;5.57;1.30;;;;;;;35.92;22.33;99926.00;8340351;28;20080;-75
2022/06/17 14:47:07;;;;;;;6.85;1.35;;;;;;;34.72;23.03;99926.38;8338335;28;20475;-75
2022/06/17 14:51:30;;;;;;;3.42;1.27;;;;;;;35.38;23.46;99920.81;8437844;28;20163;-75
2022/06/17 14:55:35;;;;;;;2.85;1.20;;;;;;;32.34;24.66;99919.66;8440523;28;20070;-75
2022/06/17 14:59:40;;;;;;;1.42;1.17;;;;;;;32.71;24.97;99921.94;8437730;28;20104;-75
2022/06/17 15:03:42;;;;;;;3.70;1.20;;;;;;;34.61;22.23;99920.31;8460615;28;20047;-75
2022/06/17 15:08:20;;;;;;;2.00;1.30;;;;;;;35.80;21.45;99912.81;8455713;28;20050;-76
2022/06/17 15:12:32;;;;;;;3.65;1.00;;;;;;;35.56;20.97;99916.13;8419625;28;20040;-76
2022/06/17 15:16:35;;;;;;;4.18;1.25;;;;;;;34.68;23.00;99914.50;8374470;28;20131;-75
2022/06/17 15:20:39;;;;;;;4.88;1.27;;;;;;;34.13;22.66;99906.66;8408905;28;20045;-76
2022/06/17 15:24:50;;;;;;;2.92;1.05;;;;;;;33.67;22.73;99908.88;8421398;28;20055;-76
2022/06/17 15:28:53;;;;;;;4.65;1.05;;;;;;;33.44;23.11;99923.16;8418852;28;20425;-76
2022/06/17 15:32:58;;;;;;;2.78;1.20;;;;;;;33.38;23.88;99913.72;8429504;28;20048;-75
2022/06/17 15:37:01;;;;;;;5.78;1.65;;;;;;;32.66;24.14;99908.50;8426964;28;20429;-75
2022/06/17 15:41:20;;;;;;;2.63;1.20;;;;;;;32.87;23.43;99913.53;8439625;28;20036;-76
2022/06/17 15:45:21;;;;;;;4.20;0.90;;;;;;;32.14;24.22;99914.94;8492568;27;20043;-75
2022/06/17 15:49:29;;;;;;;1.50;1.00;;;;;;;31.53;24.23;99905.50;8476026;27;20050;-75
2022/06/17 15:53:35;;;;;;;2.97;1.10;;;;;;;30.76;25.04;99903.81;8491846;27;20054;-75
2022/06/17 15:58:01;;;;;;;2.20;1.20;;;;;;;30.15;26.81;99908.75;8486020;27;20050;-75
2022/06/17 16:02:24;;;;;;;3.10;1.17;;;;;;;29.66;26.90;99907.47;8440031;28;20104;-76
2022/06/17 16:06:29;;;;;;;6.68;1.30;;;;;;;29.26;26.98;99909.13;8461058;28;20069;-75
2022/06/17 16:10:35;;;;;;;6.30;1.30;;;;;;;28.71;28.44;99912.84;8410171;28;20047;-75
2022/06/17 16:14:36;;;;;;;3.15;1.55;;;;;;;28.46;29.28;99901.97;8460357;28;20105;-75
2022/06/17 16:18:39;;;;;;;3.15;1.15;;;;;;;28.44;29.47;99903.59;8460578;28;20047;-75
2022/06/17 16:22:42;;;;;;;2.65;1.02;;;;;;;28.65;28.29;99903.41;8460785;28;20154;-76
2022/06/17 16:26:47;;;;;;;1.90;1.00;;;;;;;28.01;28.91;99898.34;8452886;28;20504;-75
2022/06/17 16:30:54;;;;;;;7.30;1.38;;;;;;;28.00;29.26;99907.84;8459541;27;20464;-75
2022/06/17 16:34:55;;;;;;;3.70;1.40;;;;;;;28.00;29.38;99913.41;8472993;27;20051;-74
2022/06/17 16:38:59;;;;;;;2.33;1.33;;;;;;;27.72;30.38;99908.00;8455298;27;20600;-73
2022/06/17 16:47:21;;;;;;;6.65;1.17;;;;;;;28.02;29.08;99905.44;8483877;27;20043;-74
2022/06/17 16:51:22;;;;;;;2.45;1.17;;;;;;;28.00;28.59;99907.84;8480578;27;20054;-73
2022/06/17 16:55:27;;;;;;;7.43;1.30;;;;;;;28.44;28.80;99898.03;8490434;27;20127;-74
2022/06/17 16:59:28;;;;;;;7.68;1.40;;;;;;;28.10;29.62;99912.53;8483061;27;20108;-73
2022/06/17 17:03:28;;;;;;;2.70;1.40;;;;;;;27.49;30.91;99910.50;8470558;27;20043;-75
2022/06/17 17:07:30;;;;;;;3.85;1.20;;;;;;;26.89;32.00;99912.25;8470031;27;20032;-75
2022/06/17 17:11:31;;;;;;;2.75;1.30;;;;;;;26.63;32.94;99911.88;8482760;27;20127;-73
2022/06/17 17:15:32;;;;;;;9.27;1.30;;;;;;;26.39;34.03;99905.94;8465591;27;20072;-73
2022/06/17 17:19:33;;;;;;;3.17;1.17;;;;;;;26.06;33.63;99903.53;8474584;27;20469;-74
2022/06/17 17:23:38;;;;;;;1.77;1.25;;;;;;;25.97;34.34;99905.84;8475045;27;20050;-74
2022/06/17 17:27:39;;;;;;;8.57;1.20;;;;;;;25.74;34.61;99908.19;8484896;27;20043;-73
2022/06/17 17:31:40;;;;;;;4.85;1.30;;;;;;;25.55;35.74;99907.34;8521683;27;20047;-74
2022/06/17 17:35:42;;;;;;;4.95;1.45;;;;;;;25.39;37.49;99904.06;8520065;27;20156;-75
2022/06/17 17:39:43;;;;;;;3.58;1.50;;;;;;;25.21;38.59;99905.97;8471725;27;20054;-74
2022/06/17 17:43:45;;;;;;;3.45;1.38;;;;;;;25.04;39.39;99909.44;8506614;27;20049;-73
2022/06/17 17:47:47;;;;;;;2.33;1.35;;;;;;;24.83;40.08;99910.88;8495966;27;20095;-74
2022/06/17 17:51:49;;;;;;;3.10;1.50;;;;;;;24.68;40.95;99908.38;8519206;27;20473;-74
2022/06/17 17:55:50;;;;;;;2.22;1.40;;;;;;;24.49;41.19;99906.66;8496173;27;20042;-74
2022/06/17 17:59:52;;;;;;;9.32;1.50;;;;;;;24.32;41.27;99901.81;8514665;27;20559;-74
2022/06/17 18:03:54;;;;;;;7.35;1.60;;;;;;;24.10;41.56;99905.50;8518311;27;20042;-74
2022/06/17 18:07:55;;;;;;;5.60;1.50;;;;;;;23.94;42.36;99912.06;8500115;27;20054;-74
2022/06/17 18:11:57;;;;;;;31.13;17.63;;;;;;;23.73;43.36;99909.06;8409798;28;20426;-74
2022/06/17 18:15:58;;;;;;;16.55;4.78;;;;;;;23.50;43.73;99916.69;8410075;28;20210;-74
2022/06/17 18:19:58;;;;;;;8.75;3.05;;;;;;;23.24;44.46;99908.44;8373440;28;20056;-72
2022/06/17 18:23:59;;;;;;;10.52;3.28;;;;;;;23.01;45.27;99917.56;8399064;28;20131;-73
2022/06/17 18:28:00;;;;;;;3.50;2.03;;;;;;;22.77;45.89;99909.75;8403783;28;20094;-74
2022/06/17 18:32:05;;;;;;;3.55;1.80;;;;;;;22.54;46.10;99909.75;8411911;28;20130;-72
2022/06/17 18:36:12;;;;;;;5.45;2.88;;;;;;;22.38;46.82;99911.06;8363592;28;20585;-73
2022/06/17 18:40:16;;;;;;;6.90;3.25;;;;;;;22.16;47.92;99905.19;8408699;27;20060;-74
2022/06/17 18:44:17;;;;;;;3.13;2.00;;;;;;;21.96;48.45;99911.91;8520410;27;20051;-74
2022/06/17 18:48:22;;;;;;;7.78;3.20;;;;;;;21.75;49.83;99911.47;8467787;27;20039;-74
2022/06/17 18:52:24;;;;;;;5.38;3.85;;;;;;;21.51;50.84;99911.78;8486989;27;20077;-74
2022/06/17 18:56:25;;;;;;;6.97;2.95;;;;;;;21.25;52.00;99915.97;8487707;27;20136;-73
2022/06/17 19:00:28;;;;;;;5.43;3.67;;;;;;;21.03;52.63;99919.38;8461956;27;20055;-74
2022/06/17 19:04:29;;;;;;;6.05;2.88;;;;;;;20.79;53.42;99914.91;8502324;27;20050;-73
2022/06/17 19:17:32;;;;;;;8.80;4.20;;;;;;;20.00;55.11;99916.03;8516337;27;20118;-75
2022/06/17 19:21:37;;;;;;;8.50;4.55;;;;;;;19.83;55.60;99927.34;8500587;27;20046;-75
2022/06/17 19:25:40;;;;;;;9.07;3.60;;;;;;;19.63;55.88;99929.94;8525528;27;20407;-74
2022/06/17 19:29:42;;;;;;;9.02;4.30;;;;;;;19.43;56.37;99930.88;8515408;27;20051;-76
2022/06/17 19:33:47;;;;;;;10.00;4.43;;;;;;;19.24;57.05;99934.28;8508380;27;20098;-77
2022/06/17 19:37:48;;;;;;;19.70;4.57;;;;;;;19.09;57.59;99942.41;8512053;27;20054;-76
2022/06/17 19:41:53;;;;;;;14.10;4.28;;;;;;;18.94;57.56;99941.94;8495186;27;20042;-76
2022/06/17 19:45:54;;;;;;;14.13;3.65;;;;;;;18.73;58.29;99952.22;8516972;27;20096;-73